M I D A S
Marine Information and Data Acquisition System
Tripno 754 of the Zeeleeuw from 2004-07-30 06:45:21 to 2004-07-30 12:54:01
Back to CruiseResearch ActivitiesStationsMapUnderway DataData graphs

EquipmentUnitsComment
TimeDGPSUTC
LatitudeDGPSDM.mWGS84
LongitudeDGPSDM.mWGS84
TemperatureSBE03/SBE38deg celciusITS90
ConductivitySBE21S/mITS90
SalinitySBE21 Practical Salinity Units
ChlorophylAChelsea fluorimeterg/lCalibrated in Aceton
Missing or incorrect values are displayed as -999
Sea surface data collected by the RV Zeeleeuw from 2004-07-30 06:45:21 to 2004-07-30 12:54:01
Time Latitude Longitude Temperature Conductivity Salinity ChlorophylA
2004-07-30 06:46:23 51°16.476 2°53.154 19.971539 4.515803 32.645008 2.589691
2004-07-30 06:47:23 51°16.663 2°52.986 20.016822 4.588694 33.224748 3.061623
2004-07-30 06:48:24 51°16.85 2°52.817 20.031263 4.612429 33.392707 3.432426
2004-07-30 06:49:23 51°17.027 2°52.644 20.031263 4.600087 33.290439 3.533554
2004-07-30 06:50:24 51°17.211 2°52.462 20.037088 4.593019 33.229292 3.600973
2004-07-30 06:51:23 51°17.39 2°52.286 20.039393 4.594812 33.239938 3.499845
2004-07-30 06:52:24 51°17.573 2°52.102 20.031142 4.591964 33.218531 3.600973
2004-07-30 06:53:23 51°17.751 2°51.924 20.01925 4.580993 33.139641 3.331298
2004-07-30 06:54:24 51°17.949 2°51.818 20.014921 4.575086 33.094014 3.466136
2004-07-30 06:55:23 51°18.129 2°51.929 20.012898 4.565908 33.026878 3.398717
2004-07-30 06:56:23 51°18.227 2°52.209 20.008124 4.556731 32.953687 3.23017
2004-07-30 06:57:23 51°18.298 2°52.515 20.005089 4.550507 32.905516 3.095332
2004-07-30 06:58:23 51°18.369 2°52.825 20.007113 4.544495 32.85796 3.129042
2004-07-30 06:59:23 51°18.438 2°53.135 20.0025 4.537955 32.807788 3.027913
2004-07-30 07:00:24 51°18.509 2°53.451 20.001974 4.532364 32.761472 3.129042
2004-07-30 07:01:23 51°18.578 2°53.755 19.998534 4.524664 32.702477 2.65711
2004-07-30 07:02:24 51°18.656 2°54.065 19.986434 4.517702 32.650004 2.589691
2004-07-30 07:03:24 51°18.734 2°54.368 19.969514 4.508103 32.583832 2.488563
2004-07-30 07:04:23 51°18.807 2°54.666 19.952267 4.497977 32.514465 2.421144
2004-07-30 07:05:23 51°18.885 2°54.968 19.919055 4.486269 32.440417 2.387435
2004-07-30 07:06:23 51°18.961 2°55.27 19.877276 4.471081 32.346825 2.151469
2004-07-30 07:07:24 51°19.039 2°55.578 19.831253 4.45874 32.277265 2.050341
2004-07-30 07:08:24 51°19.116 2°55.884 19.78455 4.449143 32.234159 1.982922
2004-07-30 07:09:23 51°19.191 2°56.185 19.765633 4.443342 32.213658 1.915503
2004-07-30 07:10:24 51°19.267 2°56.496 19.76206 4.442182 32.213451 1.780665
2004-07-30 07:11:24 51°19.332 2°56.781 19.774281 4.442604 32.215248 1.949212
2004-07-30 07:12:23 51°19.276 2°56.895 19.784956 4.443342 32.212035 1.982922
2004-07-30 07:13:23 51°19.197 2°56.848 19.802975 4.443236 32.200367 1.780665
2004-07-30 07:14:25 51°19.174 2°56.725 19.799242 4.443658 32.194059 1.982922
2004-07-30 07:15:23 51°19.179 2°56.618 19.787229 4.442603 32.197402 1.848084
2004-07-30 07:16:25 51°19.157 2°56.582 19.791978 4.44292 32.198884 1.881794
2004-07-30 07:17:23 51°19.134 2°56.567 19.782277 4.443131 32.202756 2.016631
2004-07-30 07:18:24 51°19.108 2°56.552 19.779639 4.442393 32.20272 1.915503
2004-07-30 07:19:23 51°19.078 2°56.528 19.778827 4.442182 32.204255 2.117759
2004-07-30 07:20:23 51°19.044 2°56.45 19.784347 4.442604 32.203348 2.08405
2004-07-30 07:21:25 51°19.053 2°56.362 19.774808 4.442287 32.201865 2.117759
2004-07-30 07:22:24 51°19.092 2°56.312 19.774646 4.441654 32.204307 2.151469
2004-07-30 07:23:23 51°19.115 2°56.268 19.772291 4.441865 32.207099 2.218888
2004-07-30 07:24:23 51°19.114 2°56.22 19.769856 4.442393 32.20975 2.117759
2004-07-30 07:25:25 51°19.093 2°56.219 19.769571 4.442287 32.209977 2.016631
2004-07-30 07:26:23 51°19.074 2°56.209 19.768151 4.442604 32.215248 2.151469
2004-07-30 07:27:23 51°19.053 2°56.188 19.766324 4.442393 32.212997 1.949212
2004-07-30 07:28:24 51°19.031 2°56.166 19.765309 4.442393 32.212997 1.982922
2004-07-30 07:29:25 51°19.008 2°56.143 19.766689 4.442393 32.215161 1.982922
2004-07-30 07:30:23 51°18.986 2°56.12 19.769896 4.442498 32.215475 1.881794
2004-07-30 07:31:23 51°18.961 2°56.094 19.773428 4.443237 32.216049 1.848084
2004-07-30 07:32:24 51°18.937 2°56.066 19.773875 4.443131 32.214653 2.016631
2004-07-30 07:33:24 51°18.915 2°56.037 19.772616 4.442815 32.21317 1.881794
2004-07-30 07:34:25 51°18.892 2°56.008 19.77148 4.442604 32.21146 1.949212
2004-07-30 07:35:23 51°18.87 2°55.979 19.770424 4.442709 32.212856 2.08405
2004-07-30 07:36:23 51°18.847 2°55.949 19.771845 4.442604 32.212001 1.881794
2004-07-30 07:37:23 51°18.825 2°55.919 19.772616 4.442604 32.21146 1.982922
2004-07-30 07:38:23 51°18.804 2°55.888 19.773388 4.442604 32.210378 2.050341
2004-07-30 07:39:23 51°18.783 2°55.862 19.773591 4.442604 32.21146 2.117759
2004-07-30 07:40:25 51°18.763 2°55.839 19.773063 4.442393 32.210291 2.016631
2004-07-30 07:41:22 51°18.743 2°55.816 19.773753 4.44292 32.212943 2.218888
2004-07-30 07:42:24 51°18.722 2°55.79 19.773144 4.442287 32.207814 2.016631
2004-07-30 07:43:24 51°18.699 2°55.725 19.778502 4.443026 32.211093 2.016631
2004-07-30 07:44:23 51°18.739 2°55.606 19.769409 4.44292 32.208616 2.185178
2004-07-30 07:45:24 51°18.846 2°55.676 19.763603 4.442076 32.208809 2.151469
2004-07-30 07:46:23 51°18.981 2°55.896 19.764943 4.44176 32.210031 1.982922
2004-07-30 07:47:24 51°19.113 2°56.155 19.770627 4.442815 32.215334 1.982922
2004-07-30 07:48:24 51°19.238 2°56.418 19.778827 4.443764 32.2187 1.915503
2004-07-30 07:49:25 51°19.32 2°56.728 19.784753 4.444819 32.220216 2.050341
2004-07-30 07:50:23 51°19.395 2°57.024 19.786417 4.445029 32.219762 1.848084
2004-07-30 07:51:24 51°19.474 2°57.333 19.789502 4.44408 32.211529 1.982922
2004-07-30 07:52:24 51°19.551 2°57.638 19.789949 4.44408 32.210988 1.881794
2004-07-30 07:53:23 51°19.628 2°57.932 19.776229 4.445241 32.228505 2.016631
2004-07-30 07:54:23 51°19.703 2°58.233 19.771398 4.445557 32.233235 2.117759
2004-07-30 07:55:24 51°19.782 2°58.539 19.773063 4.444186 32.221579 1.982922
2004-07-30 07:56:25 51°19.861 2°58.848 19.768435 4.443869 32.220638 2.08405
2004-07-30 07:57:23 51°19.939 2°59.142 19.769409 4.441865 32.210886 2.320016
2004-07-30 07:58:24 51°20.016 2°59.454 19.770424 4.444186 32.225367 2.151469
2004-07-30 07:59:24 51°20.092 2°59.76 19.779192 4.445979 32.236113 1.982922
2004-07-30 08:00:23 51°20.167 3°0.062 19.784875 4.446506 32.236057 2.016631
2004-07-30 08:01:25 51°20.244 3°0.383 19.788447 4.447455 32.238338 2.016631
2004-07-30 08:02:23 51°20.321 3°0.683 19.788284 4.447983 32.242071 1.949212
2004-07-30 08:03:24 51°20.401 3°1.001 19.786823 4.448721 32.249679 2.08405
2004-07-30 08:04:25 51°20.479 3°1.32 19.783373 4.450092 32.264042 2.08405
2004-07-30 08:05:23 51°20.544 3°1.629 19.772129 4.454839 32.307943 1.915503
2004-07-30 08:06:23 51°20.614 3°1.949 19.760558 4.460007 32.358551 1.982922
2004-07-30 08:07:23 51°20.686 3°2.269 19.751909 4.462644 32.384296 1.982922
2004-07-30 08:08:23 51°20.759 3°2.592 19.759259 4.462539 32.381264 1.881794
2004-07-30 08:09:23 51°20.831 3°2.915 19.777893 4.467602 32.410367 1.881794
2004-07-30 08:10:23 51°20.91 3°3.234 19.794453 4.469711 32.41877 1.949212
2004-07-30 08:11:23 51°20.988 3°3.554 19.792992 4.470344 32.420637 1.982922
2004-07-30 08:12:23 51°21.07 3°3.872 19.774808 4.472031 32.435958 1.915503
2004-07-30 08:13:23 51°21.147 3°4.177 19.73473 4.474247 32.479555 1.915503
2004-07-30 08:14:23 51°21.097 3°4.314 19.694995 4.476779 32.527441 1.881794
2004-07-30 08:15:24 51°21.024 3°4.26 19.734364 4.474459 32.510773 1.982922
2004-07-30 08:16:23 51°21.024 3°4.154 19.722422 4.47583 32.516445 1.814375
2004-07-30 08:17:23 51°21.039 3°4.065 19.749432 4.473087 32.487608 1.780665
2004-07-30 08:18:23 51°21.029 3°4.013 19.77221 4.474141 32.468878 1.881794
2004-07-30 08:19:23 51°21.011 3°3.991 19.755767 4.475513 32.484918 2.016631
2004-07-30 08:20:23 51°20.991 3°3.971 19.74797 4.476357 32.499413 1.814375
2004-07-30 08:21:24 51°20.973 3°3.952 19.74001 4.476251 32.505112 1.848084
2004-07-30 08:22:25 51°20.956 3°3.933 19.736761 4.476884 32.514078 1.713247
2004-07-30 08:23:23 51°20.941 3°3.917 19.735096 4.476568 32.514788 1.982922
2004-07-30 08:24:23 51°20.929 3°3.913 19.737126 4.476673 32.514551 1.780665
2004-07-30 08:25:23 51°20.917 3°3.912 19.73867 4.476568 32.512601 2.050341
2004-07-30 08:26:25 51°20.903 3°3.908 19.737045 4.476357 32.510887 1.982922
2004-07-30 08:27:22 51°20.881 3°3.886 19.740335 4.476146 32.509174 1.814375
2004-07-30 08:28:23 51°20.85 3°3.817 19.773509 4.475513 32.489285 2.050341
2004-07-30 08:29:25 51°20.821 3°3.719 19.784429 4.474669 32.466614 2.151469
2004-07-30 08:30:23 51°20.83 3°3.613 19.784347 4.474352 32.455325 2.016631
2004-07-30 08:31:23 51°20.873 3°3.5 19.784063 4.474036 32.456573 1.982922
2004-07-30 08:32:25 51°20.923 3°3.358 19.788974 4.474774 32.461473 1.949212
2004-07-30 08:33:23 51°20.96 3°3.271 19.80192 4.474774 32.448942 1.949212
2004-07-30 08:34:23 51°20.981 3°3.245 19.794494 4.475407 32.454619 1.949212
2004-07-30 08:35:23 51°20.974 3°3.248 19.788122 4.476145 32.467691 1.848084
2004-07-30 08:36:24 51°20.974 3°3.237 19.786093 4.476567 32.47493 1.915503
2004-07-30 08:37:23 51°20.971 3°3.216 19.784266 4.476462 32.474619 1.982922
2004-07-30 08:38:23 51°20.962 3°3.199 19.784104 4.477095 32.481935 1.814375
2004-07-30 08:39:23 51°20.95 3°3.185 19.789949 4.477727 32.481616 1.780665
2004-07-30 08:40:23 51°20.938 3°3.172 19.797822 4.478677 32.4855 1.848084
2004-07-30 08:41:24 51°20.926 3°3.161 19.802935 4.479415 32.486036 1.814375
2004-07-30 08:42:23 51°20.915 3°3.151 19.806262 4.479204 32.4816 2.185178
2004-07-30 08:43:25 51°20.904 3°3.141 19.810969 4.479626 32.482841 1.881794
2004-07-30 08:44:25 51°20.895 3°3.132 19.811943 4.480153 32.484393 1.780665
2004-07-30 08:45:25 51°20.886 3°3.125 19.812064 4.479626 32.480116 1.848084
2004-07-30 08:46:23 51°20.89 3°3.078 19.813971 4.479837 32.480192 1.881794
2004-07-30 08:47:23 51°20.994 3°3.072 19.811659 4.479098 32.471481 2.016631
2004-07-30 08:48:25 51°21.082 3°3.325 19.783982 4.478149 32.479586 1.949212
2004-07-30 08:49:23 51°21.158 3°3.643 19.765836 4.477306 32.48692 2.151469
2004-07-30 08:50:24 51°21.23 3°3.99 19.751178 4.477728 32.504537 2.016631
2004-07-30 08:51:23 51°21.3 3°4.326 19.739563 4.478255 32.514829 1.814375
2004-07-30 08:52:24 51°21.371 3°4.676 19.717222 4.478467 32.53404 1.780665
2004-07-30 08:53:23 51°21.444 3°5.011 19.697921 4.48026 32.567233 1.780665
2004-07-30 08:54:23 51°21.515 3°5.354 19.691134 4.480366 32.571928 1.881794
2004-07-30 08:55:25 51°21.593 3°5.703 19.696254 4.480366 32.57796 1.915503
2004-07-30 08:56:23 51°21.668 3°6.029 19.711046 4.478256 32.55094 1.814375
2004-07-30 08:57:23 51°21.748 3°6.366 19.698774 4.476357 32.536602 1.949212
2004-07-30 08:58:23 51°21.824 3°6.705 19.720837 4.475197 32.518961 1.949212
2004-07-30 08:59:25 51°21.876 3°7.069 19.726362 4.474775 32.507875 1.915503
2004-07-30 09:00:24 51°21.93 3°7.415 19.741229 4.474564 32.495231 2.151469
2004-07-30 09:01:23 51°21.981 3°7.764 19.762142 4.474247 32.482831 2.117759
2004-07-30 09:02:23 51°22.031 3°8.12 19.763888 4.473087 32.458137 2.08405
2004-07-30 09:03:23 51°22.082 3°8.481 19.765999 4.474247 32.47028 2.117759
2004-07-30 09:04:23 51°22.132 3°8.841 19.782967 4.47393 32.463894 2.151469
2004-07-30 09:05:23 51°22.182 3°9.202 19.775093 4.472454 32.445917 1.949212
2004-07-30 09:06:23 51°22.229 3°9.567 19.768069 4.471188 32.438372 2.151469
2004-07-30 09:07:24 51°22.273 3°9.944 19.782602 4.469395 32.425459 2.050341
2004-07-30 09:08:24 51°22.283 3°10.321 19.773388 4.469289 32.421336 2.151469
2004-07-30 09:09:23 51°22.267 3°10.694 19.796401 4.466969 32.411221 2.218888
2004-07-30 09:10:24 51°22.298 3°11.079 19.814783 4.456948 32.297931 2.555982
2004-07-30 09:11:24 51°22.353 3°11.456 19.794656 4.44967 32.23789 2.488563
2004-07-30 09:12:24 51°22.426 3°11.826 19.817339 4.442814 32.193167 2.488563
2004-07-30 09:13:23 51°22.509 3°12.181 19.82598 4.450197 32.228106 2.589691
2004-07-30 09:14:24 51°22.598 3°12.544 19.817217 4.450514 32.237154 2.555982
2004-07-30 09:15:23 51°22.666 3°12.906 19.814986 4.448615 32.221239 2.555982
2004-07-30 09:16:24 51°22.723 3°13.284 19.81389 4.446611 32.203392 2.6234
2004-07-30 09:17:25 51°22.779 3°13.665 19.793804 4.443447 32.191811 2.690819
2004-07-30 09:18:25 51°22.832 3°14.042 19.806993 4.441759 32.179223 2.589691
2004-07-30 09:19:22 51°22.88 3°14.404 19.833646 4.440072 32.162318 2.589691
2004-07-30 09:20:24 51°22.934 3°14.797 19.84269 4.438911 32.128132 2.589691
2004-07-30 09:21:23 51°22.986 3°15.172 19.860492 4.435219 32.090199 2.555982
2004-07-30 09:22:25 51°23.043 3°15.558 19.863452 4.431317 32.045218 2.6234
2004-07-30 09:23:24 51°22.986 3°15.739 19.876749 4.427519 32.008633 2.555982
2004-07-30 09:24:25 51°22.926 3°15.725 19.892272 4.425093 31.98689 2.353725
2004-07-30 09:25:24 51°22.942 3°15.657 19.907144 4.424355 31.961131 2.421144
2004-07-30 09:26:23 51°22.973 3°15.605 19.882099 4.424038 31.961784 2.387435
2004-07-30 09:27:23 51°22.975 3°15.621 19.889395 4.4233 31.968659 2.353725
2004-07-30 09:28:25 51°22.97 3°15.645 19.896001 4.425093 31.975115 2.320016
2004-07-30 09:29:25 51°22.967 3°15.613 19.90759 4.425726 31.979691 2.218888
2004-07-30 09:30:22 51°23.011 3°15.606 19.909575 4.428995 31.992181 2.421144
2004-07-30 09:31:23 51°23.062 3°15.702 19.885585 4.430789 32.007728 2.353725
2004-07-30 09:32:25 51°23.07 3°15.857 19.908967 4.430472 32.016418 2.353725
2004-07-30 09:33:25 51°23.074 3°15.969 19.888625 4.430156 32.016005 2.320016
2004-07-30 09:34:25 51°23.076 3°16.017 19.882342 4.429629 32.013352 2.387435
2004-07-30 09:35:23 51°23.079 3°16.066 19.859438 4.428363 32.020812 2.454853
2004-07-30 09:36:23 51°23.081 3°16.122 19.864222 4.42773 32.021596 2.488563
2004-07-30 09:37:25 51°23.083 3°16.185 19.853396 4.427836 32.026204 2.522272
2004-07-30 09:38:24 51°23.084 3°16.247 19.855059 4.427942 32.02652 2.488563
2004-07-30 09:39:25 51°23.087 3°16.315 19.845326 4.427942 32.037253 2.893076
2004-07-30 09:40:25 51°23.09 3°16.384 19.858465 4.428363 32.031004 2.825657
2004-07-30 09:41:23 51°23.094 3°16.452 19.874154 4.427836 32.019231 2.65711
2004-07-30 09:42:25 51°23.1 3°16.527 19.910547 4.429101 32.010164 2.555982
2004-07-30 09:43:23 51°23.107 3°16.598 19.899688 4.430261 32.005076 2.421144
2004-07-30 09:44:25 51°23.163 3°16.715 19.895069 4.428785 32.002252 2.454853
2004-07-30 09:45:24 51°23.32 3°16.702 19.963563 4.429628 32.001036 2.387435
2004-07-30 09:46:25 51°23.529 3°16.618 19.892961 4.437749 32.03983 2.454853
2004-07-30 09:47:25 51°23.74 3°16.539 19.861952 4.444817 32.125322 2.488563
2004-07-30 09:48:23 51°23.946 3°16.47 19.833119 4.447454 32.188634 2.454853
2004-07-30 09:49:24 51°24.154 3°16.37 19.93303 4.454415 32.223371 2.454853
2004-07-30 09:50:23 51°24.353 3°16.273 19.876587 4.474244 32.333467 2.454853
2004-07-30 09:51:24 51°24.555 3°16.168 19.814255 4.485954 32.519983 2.488563
2004-07-30 09:52:23 51°24.716 3°15.991 19.754589 4.490596 32.576193 2.286306
2004-07-30 09:53:25 51°24.851 3°15.756 19.739401 4.511376 32.793311 1.982922
2004-07-30 09:54:24 51°24.921 3°15.485 19.73607 4.526144 32.91621 2.218888
2004-07-30 09:55:25 51°24.941 3°15.179 19.717872 4.530153 32.94994 2.286306
2004-07-30 09:56:24 51°24.923 3°14.883 19.729043 4.532473 32.975485 2.454853
2004-07-30 09:57:25 51°24.891 3°14.578 19.720837 4.537115 33.008278 2.421144
2004-07-30 09:58:25 51°24.862 3°14.278 19.706414 4.541861 33.050265 2.454853
2004-07-30 09:59:25 51°24.836 3°13.978 19.686338 4.545765 33.103775 2.488563
2004-07-30 10:00:24 51°24.812 3°13.682 19.691784 4.548719 33.135104 2.387435
2004-07-30 10:01:25 51°24.786 3°13.378 19.700887 4.552305 33.15653 2.320016
2004-07-30 10:02:24 51°24.753 3°13.086 19.696051 4.554731 33.177987 2.387435
2004-07-30 10:03:24 51°24.725 3°12.788 19.682273 4.556841 33.19519 2.320016
2004-07-30 10:04:25 51°24.705 3°12.485 19.666825 4.552938 33.180128 2.320016
2004-07-30 10:05:25 51°24.684 3°12.182 19.642223 4.54777 33.15361 2.286306
2004-07-30 10:06:24 51°24.664 3°11.885 19.646819 4.54661 33.151967 2.252597
2004-07-30 10:07:25 51°24.643 3°11.575 19.653285 4.549036 33.170091 2.286306
2004-07-30 10:08:25 51°24.621 3°11.27 19.653407 4.555892 33.220457 2.151469
2004-07-30 10:09:24 51°24.602 3°10.97 19.642467 4.558107 33.240781 2.252597
2004-07-30 10:10:25 51°24.579 3°10.659 19.632665 4.559584 33.260689 2.117759
2004-07-30 10:11:25 51°24.561 3°10.355 19.624569 4.560218 33.273715 2.117759
2004-07-30 10:12:25 51°24.546 3°10.051 19.617287 4.560745 33.284762 2.151469
2004-07-30 10:13:25 51°24.533 3°9.746 19.619728 4.560218 33.284947 2.151469
2004-07-30 10:14:23 51°24.519 3°9.451 19.621559 4.560112 33.283523 2.016631
2004-07-30 10:15:25 51°24.505 3°9.137 19.625342 4.560323 33.279069 2.016631
2004-07-30 10:16:25 51°24.491 3°8.833 19.621762 4.558108 33.258728 1.982922
2004-07-30 10:17:25 51°24.496 3°8.529 19.623796 4.554099 33.231595 2.151469
2004-07-30 10:18:25 51°24.513 3°8.225 19.62579 4.553783 33.224525 1.881794
2004-07-30 10:19:25 51°24.54 3°7.921 19.624895 4.549458 33.190326 1.881794
2004-07-30 10:20:25 51°24.566 3°7.616 19.614642 4.543867 33.148032 1.915503
2004-07-30 10:21:23 51°24.601 3°7.322 19.608946 4.540703 33.13114 1.780665
2004-07-30 10:22:25 51°24.636 3°7.007 19.617775 4.540175 33.124596 1.915503
2004-07-30 10:23:25 51°24.672 3°6.701 19.600034 4.537538 33.105857 1.746956
2004-07-30 10:24:24 51°24.711 3°6.399 19.578136 4.530788 33.066925 1.780665
2004-07-30 10:25:22 51°24.759 3°6.103 19.56348 4.526674 33.04784 1.746956
2004-07-30 10:26:25 51°24.811 3°5.781 19.563724 4.525408 33.044758 1.679537
2004-07-30 10:27:23 51°24.861 3°5.484 19.556354 4.52699 33.057688 1.679537
2004-07-30 10:28:25 51°24.913 3°5.168 19.549187 4.528045 33.074135 1.612118
2004-07-30 10:29:25 51°24.959 3°4.859 19.578665 4.533109 33.109369 1.578409
2004-07-30 10:30:25 51°25.005 3°4.55 19.579805 4.538172 33.137318 1.679537
2004-07-30 10:31:25 51°25.048 3°4.239 19.564783 4.540176 33.155939 1.5447
2004-07-30 10:32:25 51°25.094 3°3.928 19.553666 4.540704 33.173143 1.612118
2004-07-30 10:33:23 51°25.127 3°3.624 19.562665 4.541969 33.187422 1.578409
2004-07-30 10:34:25 51°25.151 3°3.296 19.535787 4.543025 33.205032 1.645828
2004-07-30 10:35:25 51°25.159 3°2.978 19.526254 4.544396 33.221309 1.679537
2004-07-30 10:36:25 51°25.162 3°2.657 19.501725 4.543869 33.236674 1.679537
2004-07-30 10:37:25 51°25.166 3°2.334 19.518473 4.545451 33.24569 1.713247
2004-07-30 10:38:25 51°25.171 3°2.011 19.466506 4.547245 33.277272 1.713247
2004-07-30 10:39:24 51°25.174 3°1.693 19.470257 4.54503 33.284498 1.746956
2004-07-30 10:40:24 51°25.178 3°1.371 19.493574 4.54735 33.289978 1.645828
2004-07-30 10:41:25 51°25.185 3°1.043 19.449501 4.544186 33.260665 1.713247
2004-07-30 10:42:25 51°25.191 3°0.718 19.434165 4.538174 33.265524 2.08405
2004-07-30 10:43:25 51°25.198 3°0.392 19.406625 4.540389 33.271839 1.881794
2004-07-30 10:44:25 51°25.203 3°0.066 19.495612 4.543448 33.286765 1.746956
2004-07-30 10:45:24 51°25.199 2°59.747 19.528902 4.551042 33.313461 1.645828
2004-07-30 10:46:24 51°25.197 2°59.426 19.382258 4.553469 33.358777 1.443571
2004-07-30 10:47:25 51°25.208 2°59.098 19.367275 4.544926 33.357737 1.5447
2004-07-30 10:48:23 51°25.224 2°58.788 19.371072 4.547562 33.352192 1.578409
2004-07-30 10:49:23 51°25.239 2°58.468 19.237761 4.536488 33.337157 1.612118
2004-07-30 10:50:24 51°25.254 2°58.143 19.178707 4.525941 33.321916 1.645828
2004-07-30 10:51:22 51°25.271 2°57.836 19.220619 4.522038 33.307385 1.612118
2004-07-30 10:52:25 51°25.284 2°57.503 19.314787 4.526151 33.272538 1.5447
2004-07-30 10:53:25 51°25.295 2°57.181 19.292187 4.545981 33.405593 1.443571
2004-07-30 10:54:25 51°25.31 2°56.857 19.163844 4.544401 33.508422 1.342443
2004-07-30 10:55:25 51°25.329 2°56.533 19.156964 4.542819 33.516563 1.308734
2004-07-30 10:56:24 51°25.351 2°56.212 19.098293 4.54187 33.521913 1.376153
2004-07-30 10:57:25 51°25.374 2°55.881 19.04667 4.536913 33.532616 1.376153
2004-07-30 10:58:25 51°25.398 2°55.555 19.042896 4.534593 33.527214 1.578409
2004-07-30 10:59:25 51°25.425 2°55.227 19.040106 4.535542 33.520695 1.443571
2004-07-30 11:00:25 51°25.462 2°54.898 19.292473 4.537546 33.507402 1.477281
2004-07-30 11:01:23 51°25.513 2°54.584 19.148199 4.547987 33.522557 1.713247
2004-07-30 11:02:25 51°25.569 2°54.248 19.26365 4.544401 33.505558 1.612118
2004-07-30 11:03:25 51°25.623 2°53.924 19.21845 4.548303 33.486837 1.645828
2004-07-30 11:04:25 51°25.677 2°53.6 19.101285 4.539971 33.507945 1.713247
2004-07-30 11:05:25 51°25.732 2°53.276 19.280904 4.535962 33.4028 1.645828
2004-07-30 11:06:25 51°25.759 2°52.953 18.959122 4.550099 33.622719 1.679537
2004-07-30 11:07:25 51°25.774 2°52.63 18.973782 4.548096 33.707263 1.713247
2004-07-30 11:08:25 51°25.788 2°52.308 19.059876 4.552104 33.70401 1.612118
2004-07-30 11:09:24 51°25.805 2°51.992 19.012411 4.562019 33.72541 1.746956
2004-07-30 11:10:25 51°25.82 2°51.664 18.969717 4.559382 33.744653 1.645828
2004-07-30 11:11:23 51°25.836 2°51.354 19.03465 4.559383 33.759722 1.679537
2004-07-30 11:12:24 51°25.849 2°51.03 19.068406 4.564445 33.758227 1.612118
2004-07-30 11:13:25 51°25.856 2°50.707 19.051264 4.563918 33.771235 1.578409
2004-07-30 11:14:25 51°25.865 2°50.388 19.072753 4.562758 33.766255 1.645828
2004-07-30 11:15:25 51°25.875 2°50.07 19.061886 4.563918 33.763703 1.645828
2004-07-30 11:16:23 51°25.871 2°49.766 19.133903 4.561597 33.735796 1.51099
2004-07-30 11:17:25 51°25.863 2°49.441 19.036373 4.561703 33.754617 1.612118
2004-07-30 11:18:25 51°25.825 2°49.137 19.226224 4.561596 33.695349 1.679537
2004-07-30 11:19:25 51°25.773 2°48.842 19.295416 4.568662 33.65414 1.679537
2004-07-30 11:20:24 51°25.698 2°48.565 19.340525 4.57615 33.620717 1.679537
2004-07-30 11:21:25 51°25.615 2°48.284 19.342731 4.572669 33.601222 1.848084
2004-07-30 11:22:25 51°25.522 2°48.018 19.327453 4.569716 33.582632 1.881794
2004-07-30 11:23:25 51°25.419 2°47.759 19.43959 4.569082 33.559152 1.881794
2004-07-30 11:24:25 51°25.316 2°47.499 19.477881 4.576782 33.547781 1.949212
2004-07-30 11:25:25 51°25.213 2°47.24 19.400422 4.582056 33.580827 2.016631
2004-07-30 11:26:25 51°25.11 2°46.98 19.254449 4.582268 33.658467 2.016631
2004-07-30 11:27:23 51°25.011 2°46.729 19.082347 4.57974 33.822311 2.016631
2004-07-30 11:28:25 51°24.898 2°46.467 18.967294 4.578476 33.898298 2.218888
2004-07-30 11:29:25 51°24.785 2°46.219 18.895187 4.575207 33.960983 2.320016
2004-07-30 11:30:25 51°24.669 2°45.97 18.762612 4.581115 34.043524 2.320016
2004-07-30 11:31:23 51°24.545 2°45.741 18.63816 4.593144 34.309389 1.746956
2004-07-30 11:32:25 51°24.406 2°45.508 18.614142 4.590086 34.324274 1.645828
2004-07-30 11:33:25 51°24.229 2°45.4 18.633745 4.588504 34.320554 1.578409
2004-07-30 11:34:25 51°24.025 2°45.404 18.664808 4.588714 34.302655 1.578409
2004-07-30 11:35:25 51°23.818 2°45.405 18.671283 4.588714 34.284203 1.51099
2004-07-30 11:36:25 51°23.61 2°45.4 18.660972 4.585444 34.26218 1.645828
2004-07-30 11:37:25 51°23.401 2°45.397 18.696641 4.583123 34.227904 1.746956
2004-07-30 11:38:24 51°23.196 2°45.389 18.724916 4.583544 34.197627 1.713247
2004-07-30 11:39:25 51°22.984 2°45.386 18.7629 4.581961 34.16842 1.679537
2004-07-30 11:40:25 51°22.776 2°45.384 18.794853 4.581117 34.127692 1.679537
2004-07-30 11:41:25 51°22.568 2°45.376 18.835555 4.579007 34.084153 1.848084
2004-07-30 11:42:25 51°22.36 2°45.37 18.87426 4.577424 34.033331 1.915503
2004-07-30 11:43:25 51°22.152 2°45.361 18.914793 4.573098 33.971525 2.050341
2004-07-30 11:44:25 51°21.945 2°45.357 18.966021 4.571621 33.924155 2.016631
2004-07-30 11:45:25 51°21.737 2°45.347 18.995624 4.572675 33.896745 2.151469
2004-07-30 11:46:25 51°21.528 2°45.34 19.00174 4.573202 33.880736 1.949212
2004-07-30 11:47:25 51°21.319 2°45.339 19.040599 4.574362 33.885707 1.982922
2004-07-30 11:48:25 51°21.113 2°45.335 19.143899 4.58164 33.894291 1.982922
2004-07-30 11:49:25 51°20.908 2°45.336 19.248682 4.585541 33.802639 2.050341
2004-07-30 11:50:25 51°20.703 2°45.335 19.280209 4.581954 33.75459 2.016631
2004-07-30 11:51:25 51°20.498 2°45.333 19.364008 4.57478 33.656376 1.982922
2004-07-30 11:52:25 51°20.292 2°45.335 19.39981 4.575517 33.603509 1.881794
2004-07-30 11:53:23 51°20.095 2°45.334 19.291574 4.576994 33.612798 1.814375
2004-07-30 11:54:25 51°19.885 2°45.333 19.369847 4.567289 33.546115 2.151469
2004-07-30 11:55:25 51°19.681 2°45.336 19.387728 4.564019 33.512385 2.08405
2004-07-30 11:56:25 51°19.475 2°45.335 19.347714 4.566656 33.519252 2.185178
2004-07-30 11:57:25 51°19.268 2°45.329 19.280005 4.565285 33.559309 2.08405
2004-07-30 11:58:25 51°19.058 2°45.315 19.265327 4.562438 33.572447 2.353725
2004-07-30 11:59:25 51°18.847 2°45.308 19.268966 4.561805 33.577535 2.353725
2004-07-30 12:00:25 51°18.636 2°45.293 19.275385 4.562544 33.57675 2.353725
2004-07-30 12:01:25 51°18.426 2°45.276 19.283235 4.56402 33.58663 2.353725
2004-07-30 12:02:25 51°18.216 2°45.265 19.300484 4.568134 33.61022 2.353725
2004-07-30 12:03:23 51°18.012 2°45.258 19.325574 4.575202 33.6524 2.421144
2004-07-30 12:04:22 51°17.805 2°45.25 19.363028 4.58364 33.696674 2.421144
2004-07-30 12:05:23 51°17.592 2°45.241 19.410094 4.593028 33.735527 2.522272
2004-07-30 12:06:25 51°17.376 2°45.228 19.451989 4.604104 33.797951 2.488563
2004-07-30 12:07:23 51°17.176 2°45.209 19.527314 4.617079 33.860985 2.454853
2004-07-30 12:08:25 51°16.962 2°45.19 19.677354 4.638071 33.942064 2.926785
2004-07-30 12:09:25 51°16.755 2°45.164 19.761857 4.659696 34.015453 3.365007
2004-07-30 12:10:25 51°16.549 2°45.197 19.762385 4.674254 34.098418 2.994204
2004-07-30 12:11:25 51°16.342 2°45.258 19.701375 4.684699 34.210298 2.6234
2004-07-30 12:12:25 51°16.151 2°45.405 19.700115 4.691029 34.291564 2.252597
2004-07-30 12:13:25 51°16.01 2°45.679 19.752356 4.696198 34.318318 1.881794
2004-07-30 12:14:25 51°15.905 2°46.01 19.781993 4.702106 34.325105 1.746956
2004-07-30 12:15:25 51°15.809 2°46.356 19.824479 4.704426 34.325629 1.848084
2004-07-30 12:16:25 51°15.731 2°46.717 19.842163 4.707907 34.311441 2.016631
2004-07-30 12:17:25 51°15.655 2°47.079 19.896082 4.702737 34.255406 2.488563
2004-07-30 12:18:25 51°15.574 2°47.431 19.925334 4.703791 34.214673 2.522272
2004-07-30 12:19:25 51°15.495 2°47.779 19.935582 4.703791 34.2141 2.555982
2004-07-30 12:20:25 51°15.411 2°48.123 19.953725 4.70453 34.20695 2.286306
2004-07-30 12:21:25 51°15.336 2°48.474 19.943641 4.705374 34.208677 2.050341
2004-07-30 12:22:25 51°15.273 2°48.836 19.943034 4.698622 34.155366 2.454853
2004-07-30 12:23:25 51°15.213 2°49.198 20.013424 4.697144 34.1262 2.387435
2004-07-30 12:24:25 51°15.156 2°49.555 20.037977 4.695033 34.036745 2.185178
2004-07-30 12:25:25 51°15.102 2°49.919 20.056134 4.686382 33.984031 2.65711
2004-07-30 12:26:25 51°15.049 2°50.282 20.06705 4.68712 33.959431 2.151469
2004-07-30 12:27:25 51°14.996 2°50.645 20.106697 4.692923 34.003153 2.252597
2004-07-30 12:28:25 51°14.944 2°51.01 20.154276 4.699779 34.020858 2.387435
2004-07-30 12:29:25 51°14.896 2°51.373 20.213725 4.702521 33.987112 2.185178
2004-07-30 12:30:25 51°14.851 2°51.735 20.247201 4.690388 33.857912 2.286306
2004-07-30 12:31:25 51°14.81 2°52.101 20.276712 4.689755 33.827533 2.185178
2004-07-30 12:32:25 51°14.766 2°52.465 20.263006 4.69197 33.842637 2.185178
2004-07-30 12:33:25 51°14.726 2°52.835 20.296217 4.697667 33.887571 2.050341
2004-07-30 12:34:25 51°14.686 2°53.2 20.211063 4.712543 34.011258 1.848084
2004-07-30 12:35:25 51°14.664 2°53.452 20.193269 4.718241 34.111097 2.016631
2004-07-30 12:36:24 51°14.657 2°53.599 20.192502 4.72109 34.133052 2.117759
2004-07-30 12:37:25 51°14.665 2°53.708 20.190242 4.721617 34.143 1.848084
2004-07-30 12:38:25 51°14.68 2°53.792 20.186045 4.722461 34.152681 1.848084
2004-07-30 12:39:25 51°14.686 2°53.927 20.295331 4.723622 34.15982 0.364871
2004-07-30 12:40:25 51°14.608 2°54.223 20.427979 0.124935 0.688735 -0.612702
2004-07-30 12:41:25 51°14.515 2°54.538 20.48969 0.111517 0.611591 -0.646411
2004-07-30 12:42:25 51°14.425 2°54.853 20.576877 0.103822 0.567453 -0.612702
2004-07-30 12:43:25 51°14.325 2°55.131 20.654937 0.097374 0.530596 -0.646411
2004-07-30 12:44:25 51°14.207 2°55.343 20.746325 0.092903 0.505057 -0.612702
2004-07-30 12:45:25 51°14.084 2°55.451 20.797996 0.089159 0.483711 -0.646411
2004-07-30 12:46:25 51°13.967 2°55.533 20.915688 0.086872 0.470612 -0.646411
2004-07-30 12:47:25 51°13.851 2°55.618 21.005543 0.085 0.45987 -0.646411
2004-07-30 12:48:25 51°13.752 2°55.719 21.080103 0.083441 0.450914 -0.646411
2004-07-30 12:49:25 51°13.691 2°55.84 21.152635 0.082193 0.443713 -0.646411
2004-07-30 12:50:25 51°13.647 2°55.948 21.237976 0.080842 0.435939 -0.612702
2004-07-30 12:51:25 51°13.619 2°56.032 21.343943 0.079802 0.429918 -0.612702
2004-07-30 12:52:25 51°13.6 2°56.091 21.412041 0.078866 0.424501 -0.612702
2004-07-30 12:53:25 51°13.597 2°56.096 21.478647 0.078034 0.419664 -0.646411